Port Lavaca, TX

1:44 AM CDT on September 20, 2017 (GMT -0500)
Port Lavaca

Weather History for KPKV - March, 2014

Change the Weather History Date:

Monday, March 17, 2014

  Actual Average (KVCT) Record (KVCT)
Temperature  
Mean Temperature 52 °F -  
Max Temperature 65 °F 74 °F 87 °F (1925)
Min Temperature 39 °F 54 °F 32 °F (1913)
Degree Days  
Heating Degree Days 13    
Growing Degree Days 2 (Base 50)    
Moisture  
Dew Point 38 °F    
Average Humidity 61    
Maximum Humidity 88    
Minimum Humidity 33    
Precipitation  
Precipitation 0.00 in - - ()
Sea Level Pressure  
Sea Level Pressure 29.96 in    
Wind  
Wind Speed 10 mph (NW)    
Max Wind Speed 17 mph    
Max Gust Speed 28 mph    
Visibility 10 miles    
Events      
Averages and records for this station are not official NWS values.
T = Trace of Precipitation, MM = Missing Value Source: NWS Daily Summary

Daily Weather History Graph

Daily Weather History Graph

Search for Another Location

Airport or City:

Trip Planner

Search our weather history database for the weather conditions in past years. The results will help you decide how hot, cold, wet, or windy it might be!

Date:

Astronomy

Mar. 17, 2014 Rise Set
Actual Time 7:34 AM CDT 7:36 PM CDT
Civil Twilight 7:10 AM CDT 7:59 PM CDT
Nautical Twilight 6:43 AM CDT 8:27 PM CDT
Astronomical Twilight 6:15 AM CDT 8:54 PM CDT
Moon 8:45 PM CDT (3/17) 7:56 AM CDT (3/17)
Length of Visible Light 12h 49m
Length of Day
12h 02m
Full, 99% of the Moon is Illuminated
Mar 17
Full
Mar 23
Last Quarter
Mar 30
New
Apr 7
First Quarter
Apr 15
Full

Hourly Weather History & Observations

Time (CDT) Temp. Windchill Dew Point Humidity Pressure Visibility Wind Dir Wind Speed Gust Speed Precip Events Conditions
12:15 AM 46.2 °F 40.5 °F 37.6 °F 72% 30.03 in 10.0 mi North 12.7 mph 17.3 mph N/A   Clear
12:35 AM 45.9 °F 39.7 °F 37.6 °F 73% 30.04 in 10.0 mi North 13.8 mph 17.3 mph N/A   Clear
12:55 AM 45.0 °F 39.7 °F 37.6 °F 75% 30.03 in 10.0 mi North 10.4 mph - N/A   Clear
1:15 AM 45.1 °F 38.8 °F 37.4 °F 74% 30.02 in 10.0 mi North 13.8 mph - N/A   Clear
1:35 AM 44.8 °F 38.3 °F 36.9 °F 74% 30.03 in 10.0 mi NNW 13.8 mph - N/A   Clear
1:55 AM 45.0 °F 38.2 °F 36.1 °F 71% 30.02 in 10.0 mi North 15.0 mph - N/A   Clear
2:15 AM 44.6 °F 37.2 °F 35.8 °F 71% 30.02 in 10.0 mi North 17.3 mph - N/A   Clear
2:35 AM 44.6 °F 37.4 °F 35.4 °F 70% 30.03 in 10.0 mi North 16.1 mph 24.2 mph N/A   Clear
2:55 AM 43.7 °F 37.3 °F 35.6 °F 73% 30.02 in 10.0 mi North 12.7 mph - N/A   Clear
3:15 AM 42.8 °F 37.5 °F 35.6 °F 76% 30.01 in 10.0 mi North 9.2 mph - N/A   Clear
3:35 AM 42.6 °F 36.3 °F 35.6 °F 76% 30.00 in 10.0 mi North 11.5 mph 16.1 mph N/A   Clear
3:55 AM 42.8 °F 37.0 °F 35.6 °F 76% 29.99 in 10.0 mi North 10.4 mph - N/A   Clear
4:15 AM 42.1 °F 36.6 °F 35.8 °F 78% 29.99 in 10.0 mi NNW 9.2 mph - N/A   Clear
4:35 AM 42.4 °F 37.0 °F 36.1 °F 78% 30.00 in 10.0 mi NNW 9.2 mph - N/A   Mostly Cloudy
4:55 AM 43.7 °F 38.6 °F 36.7 °F 76% 30.00 in 10.0 mi NNW 9.2 mph - N/A   Overcast
5:15 AM 44.4 °F 40.5 °F 36.3 °F 73% 30.00 in 10.0 mi NNW 6.9 mph - N/A   Overcast
5:35 AM 44.1 °F 38.1 °F 36.0 °F 73% 30.00 in 10.0 mi NNW 11.5 mph - N/A   Overcast
5:55 AM 43.2 °F 39.0 °F 35.2 °F 74% 30.00 in 10.0 mi NNW 6.9 mph - N/A   Scattered Clouds
6:15 AM 41.4 °F 38.4 °F 35.6 °F 80% 30.00 in 10.0 mi NNW 4.6 mph - N/A   Scattered Clouds
6:35 AM 41.5 °F 38.6 °F 35.6 °F 79% 30.01 in 10.0 mi NW 4.6 mph - N/A   Clear
6:55 AM 41.9 °F 39.0 °F 35.6 °F 78% 30.01 in 10.0 mi NW 4.6 mph - N/A   Scattered Clouds
7:15 AM 40.5 °F 36.5 °F 36.1 °F 85% 30.02 in 10.0 mi WNW 5.8 mph - N/A   Clear
7:35 AM 40.1 °F 36.1 °F 36.1 °F 86% 30.02 in 10.0 mi WNW 5.8 mph - N/A   Clear
7:55 AM 39.4 °F 35.2 °F 36.0 °F 88% 30.03 in 10.0 mi West 5.8 mph - N/A   Clear
8:15 AM 39.9 °F 35.1 °F 36.1 °F 86% 30.03 in 10.0 mi WNW 6.9 mph - N/A   Clear
8:35 AM 42.1 °F 38.4 °F 37.0 °F 82% 30.04 in 10.0 mi WNW 5.8 mph - N/A   Clear
8:55 AM 44.1 °F 40.1 °F 37.4 °F 77% 30.05 in 10.0 mi WNW 6.9 mph - N/A   Clear
9:15 AM 46.0 °F 41.9 °F 37.6 °F 72% 30.05 in 10.0 mi WNW 8.1 mph - N/A   Clear
9:35 AM 47.3 °F - 37.2 °F 68% 30.04 in 10.0 mi WNW 8.1 mph - N/A   Clear
9:55 AM 49.3 °F - 36.0 °F 60% 30.05 in 10.0 mi NNW 11.5 mph - N/A   Clear
10:15 AM 50.4 °F - 35.2 °F 56% 30.04 in 10.0 mi NW 17.3 mph 27.6 mph N/A   Clear
10:35 AM 51.4 °F - 35.6 °F 55% 30.04 in 10.0 mi NNW 15.0 mph 27.6 mph N/A   Clear
10:55 AM 51.8 °F - 35.2 °F 53% 30.04 in 10.0 mi NNW 13.8 mph - N/A   Clear
11:15 AM 52.5 °F - 36.1 °F 54% 30.04 in 10.0 mi NW 9.2 mph 16.1 mph N/A   Clear
11:35 AM 53.2 °F - 36.1 °F 52% 30.04 in 10.0 mi NW 12.7 mph 19.6 mph N/A   Clear
11:55 AM 54.7 °F - 36.0 °F 49% 30.04 in 10.0 mi NW 16.1 mph 20.7 mph N/A   Clear
12:15 PM 55.4 °F - 36.5 °F 49% 30.03 in 10.0 mi NW 15.0 mph 19.6 mph N/A   Clear
12:35 PM 55.8 °F - 36.3 °F 48% 30.02 in 10.0 mi NW 16.1 mph 19.6 mph N/A   Clear
12:55 PM 56.8 °F - 37.2 °F 48% 30.01 in 10.0 mi NW 13.8 mph 23.0 mph N/A   Clear
1:15 PM 58.8 °F - 38.3 °F 47% 30.00 in 10.0 mi WNW 11.5 mph 18.4 mph N/A   Clear
1:35 PM 59.4 °F - 38.3 °F 46% 29.99 in 10.0 mi NW 11.5 mph 19.6 mph N/A   Clear
1:55 PM 60.4 °F - 38.8 °F 45% 29.98 in 10.0 mi NW 10.4 mph 17.3 mph N/A   Clear
2:15 PM 61.7 °F - 38.8 °F 43% 29.96 in 10.0 mi NW 11.5 mph 18.4 mph N/A   Clear
2:35 PM 61.7 °F - 38.7 °F 43% 29.95 in 10.0 mi WNW 13.8 mph 18.4 mph N/A   Clear
2:55 PM 62.2 °F - 38.5 °F 41% 29.94 in 10.0 mi NW 11.5 mph 16.1 mph N/A   Clear
3:15 PM 63.3 °F - 39.0 °F 41% 29.92 in 10.0 mi WNW 9.2 mph 18.4 mph N/A   Clear
3:35 PM 63.1 °F - 38.3 °F 40% 29.91 in 10.0 mi WNW 9.2 mph 16.1 mph N/A   Clear
3:55 PM 64.2 °F - 38.5 °F 39% 29.90 in 10.0 mi WNW 9.2 mph 16.1 mph N/A   Clear
4:15 PM 64.6 °F - 37.9 °F 37% 29.89 in 10.0 mi NW 12.7 mph 17.3 mph N/A   Clear
4:35 PM 64.9 °F - 37.9 °F 37% 29.89 in 10.0 mi WNW 11.5 mph 18.4 mph N/A   Clear
4:55 PM 64.9 °F - 37.6 °F 36% 29.88 in 10.0 mi NW 11.5 mph - N/A   Clear
5:15 PM 65.3 °F - 37.4 °F 36% 29.87 in 10.0 mi West 10.4 mph 17.3 mph N/A   Clear
5:35 PM 65.3 °F - 36.5 °F 34% 29.86 in 10.0 mi WNW 9.2 mph - N/A   Clear
5:55 PM 65.3 °F - 36.5 °F 34% 29.85 in 10.0 mi NW 10.4 mph - N/A   Clear
6:15 PM 65.1 °F - 35.6 °F 33% 29.85 in 10.0 mi NW 4.6 mph 9.2 mph N/A   Clear
6:35 PM 64.8 °F - 36.3 °F 35% 29.83 in 10.0 mi NNW 6.9 mph - N/A   Clear
6:55 PM 63.9 °F - 35.4 °F 35% 29.83 in 10.0 mi Calm Calm - N/A   Clear
7:15 PM 63.5 °F - 35.4 °F 35% 29.85 in 10.0 mi WNW 4.6 mph - N/A   Clear
7:35 PM 62.1 °F - 37.2 °F 40% 29.85 in 10.0 mi Calm Calm - N/A   Clear
7:55 PM 61.3 °F - 36.5 °F 40% 29.84 in 10.0 mi NNW 3.5 mph - N/A   Clear
8:15 PM 59.2 °F - 37.4 °F 44% 29.84 in 10.0 mi North 3.5 mph - N/A   Clear
8:35 PM 56.5 °F - 39.9 °F 54% 29.84 in 10.0 mi North 3.5 mph - N/A   Clear
8:55 PM 55.0 °F - 40.3 °F 58% 29.84 in 10.0 mi Calm Calm - N/A   Clear
9:15 PM 54.0 °F - 40.5 °F 60% 29.84 in 10.0 mi Calm Calm - N/A   Clear
9:35 PM 52.0 °F - 41.0 °F 66% 29.85 in 10.0 mi SSE 8.1 mph - N/A   Clear
9:55 PM 51.6 °F - 46.4 °F 82% 29.85 in 10.0 mi SSE 8.1 mph - N/A   Clear
10:35 PM 50.9 °F - 46.0 °F 83% 29.85 in 10.0 mi South 8.1 mph - N/A   Clear
10:55 PM 51.4 °F - 46.2 °F 82% 29.85 in 10.0 mi South 8.1 mph - N/A   Clear
11:15 PM 51.3 °F - 46.6 °F 84% 29.85 in 10.0 mi South 8.1 mph - N/A   Clear
11:35 PM 51.3 °F - 47.1 °F 86% 29.85 in 10.0 mi SSE 8.1 mph - N/A   Clear
11:55 PM 50.4 °F - 46.9 °F 88% 29.85 in 10.0 mi SSE 6.9 mph - N/A   Clear